sensor_id;sensor_type;location;lat;lon;timestamp;P1;durP1;ratioP1;P2;durP2;ratioP2
12459;SDS011;6295;49.452;8.466;2023-04-25T04:14:46;8.97;;;7.60;;
12459;SDS011;6295;49.452;8.466;2023-04-25T04:18:48;7.90;;;7.10;;
12459;SDS011;6295;49.452;8.466;2023-04-25T04:22:50;7.97;;;7.13;;
12459;SDS011;6295;49.452;8.466;2023-04-25T04:26:52;7.53;;;6.77;;
12459;SDS011;6295;49.452;8.466;2023-04-25T04:30:56;7.53;;;6.73;;
12459;SDS011;6295;49.452;8.466;2023-04-25T04:34:59;9.07;;;7.10;;
12459;SDS011;6295;49.452;8.466;2023-04-25T04:39:05;7.50;;;6.70;;
12459;SDS011;6295;49.452;8.466;2023-04-25T04:43:09;8.23;;;6.47;;
12459;SDS011;6295;49.452;8.466;2023-04-25T04:47:12;7.90;;;7.13;;
12459;SDS011;6295;49.452;8.466;2023-04-25T04:51:14;8.60;;;7.70;;
12459;SDS011;6295;49.452;8.466;2023-04-25T04:55:16;9.57;;;8.20;;
12459;SDS011;6295;49.452;8.466;2023-04-25T04:59:19;9.40;;;7.10;;
12459;SDS011;6295;49.452;8.466;2023-04-25T05:03:22;9.67;;;7.53;;
12459;SDS011;6295;49.452;8.466;2023-04-25T05:07:25;9.00;;;7.60;;
12459;SDS011;6295;49.452;8.466;2023-04-25T05:11:27;9.43;;;8.27;;
12459;SDS011;6295;49.452;8.466;2023-04-25T05:15:29;9.50;;;8.23;;
12459;SDS011;6295;49.452;8.466;2023-04-25T05:19:33;10.70;;;8.50;;
12459;SDS011;6295;49.452;8.466;2023-04-25T05:23:36;10.57;;;9.33;;
12459;SDS011;6295;49.452;8.466;2023-04-25T05:27:38;10.07;;;8.30;;
12459;SDS011;6295;49.452;8.466;2023-04-25T05:31:40;9.07;;;7.93;;
12459;SDS011;6295;49.452;8.466;2023-04-25T05:35:44;8.57;;;7.67;;
12459;SDS011;6295;49.452;8.466;2023-04-25T05:39:48;8.93;;;7.90;;
12459;SDS011;6295;49.452;8.466;2023-04-25T05:43:50;9.77;;;8.77;;
12459;SDS011;6295;49.452;8.466;2023-04-25T05:47:53;9.43;;;7.93;;
12459;SDS011;6295;49.452;8.466;2023-04-25T05:51:56;9.47;;;8.30;;
12459;SDS011;6295;49.452;8.466;2023-04-25T05:55:58;8.20;;;7.40;;
12459;SDS011;6295;49.452;8.466;2023-04-25T06:00:03;9.97;;;7.80;;
12459;SDS011;6295;49.452;8.466;2023-04-25T06:04:09;10.67;;;8.70;;
12459;SDS011;6295;49.452;8.466;2023-04-25T06:08:12;8.67;;;7.77;;
12459;SDS011;6295;49.452;8.466;2023-04-25T06:12:15;11.37;;;9.00;;
12459;SDS011;6295;49.452;8.466;2023-04-25T06:16:17;9.73;;;8.13;;
12459;SDS011;6295;49.452;8.466;2023-04-25T06:20:19;10.17;;;8.57;;
12459;SDS011;6295;49.452;8.466;2023-04-25T06:24:27;9.17;;;8.23;;
12459;SDS011;6295;49.452;8.466;2023-04-25T06:28:32;12.23;;;9.30;;
12459;SDS011;6295;49.452;8.466;2023-04-25T06:32:35;11.77;;;8.37;;
12459;SDS011;6295;49.452;8.466;2023-04-25T06:36:37;9.67;;;8.63;;
12459;SDS011;6295;49.452;8.466;2023-04-25T06:40:41;10.10;;;8.77;;
12459;SDS011;6295;49.452;8.466;2023-04-25T06:44:43;10.63;;;8.73;;
12459;SDS011;6295;49.452;8.466;2023-04-25T06:48:45;10.50;;;8.87;;
12459;SDS011;6295;49.452;8.466;2023-04-25T06:52:48;11.73;;;8.67;;
12459;SDS011;6295;49.452;8.466;2023-04-25T06:56:52;11.60;;;8.10;;
12459;SDS011;6295;49.452;8.466;2023-04-25T07:00:54;11.10;;;7.50;;
12459;SDS011;6295;49.452;8.466;2023-04-25T07:04:57;15.43;;;8.33;;
12459;SDS011;6295;49.452;8.466;2023-04-25T07:09:00;10.77;;;7.70;;
12459;SDS011;6295;49.452;8.466;2023-04-25T07:13:03;11.07;;;8.30;;
12459;SDS011;6295;49.452;8.466;2023-04-25T07:17:05;13.87;;;7.93;;
12459;SDS011;6295;49.452;8.466;2023-04-25T07:21:09;13.27;;;9.50;;
12459;SDS011;6295;49.452;8.466;2023-04-25T07:25:13;13.93;;;8.70;;
12459;SDS011;6295;49.452;8.466;2023-04-25T07:29:17;14.20;;;8.77;;
12459;SDS011;6295;49.452;8.466;2023-04-25T07:33:19;12.87;;;8.57;;
12459;SDS011;6295;49.452;8.466;2023-04-25T07:37:22;13.33;;;6.97;;
12459;SDS011;6295;49.452;8.466;2023-04-25T07:41:26;14.67;;;6.73;;
12459;SDS011;6295;49.452;8.466;2023-04-25T07:45:30;13.63;;;7.67;;
12459;SDS011;6295;49.452;8.466;2023-04-25T07:49:32;14.80;;;7.40;;
12459;SDS011;6295;49.452;8.466;2023-04-25T07:53:35;19.53;;;8.10;;
12459;SDS011;6295;49.452;8.466;2023-04-25T07:57:38;12.83;;;7.47;;
12459;SDS011;6295;49.452;8.466;2023-04-25T08:01:42;12.60;;;7.70;;
12459;SDS011;6295;49.452;8.466;2023-04-25T08:05:44;16.47;;;7.80;;
12459;SDS011;6295;49.452;8.466;2023-04-25T08:09:49;14.80;;;8.23;;
12459;SDS011;6295;49.452;8.466;2023-04-25T08:13:55;14.23;;;8.07;;
12459;SDS011;6295;49.452;8.466;2023-04-25T08:22:32;14.60;;;8.40;;
